Time;durP1;ratioP1;P1;durP2;ratioP2;P2;SDS_P1;SDS_P2;PMS_P1;PMS_P2;Temp;Humidity;BMP_temperature;BMP_pressure;BME280_temperature;BME280_humidity;BME280_pressure;Samples;Min_cycle;Max_cycle;Signal;HPM_P1;HPM_P2
2022/05/26 00:01:04;;;;;;;6.93;2.83;;;13.60;99.90;;;;;;5095151;28;20377;-77
2022/05/26 00:03:34;;;;;;;7.35;3.38;;;13.60;99.90;;;;;;5078043;28;20416;-77
2022/05/26 00:06:01;;;;;;;6.70;3.30;;;13.60;99.90;;;;;;5094848;28;20097;-77
2022/05/26 00:08:27;;;;;;;10.80;4.53;;;13.60;99.90;;;;;;5078052;28;20475;-76
2022/05/26 00:10:56;;;;;;;10.27;4.78;;;13.60;99.90;;;;;;5077811;28;20133;-76
2022/05/26 00:13:22;;;;;;;14.45;6.50;;;13.60;99.90;;;;;;5094726;28;20042;-76
2022/05/26 00:15:49;;;;;;;15.32;7.90;;;13.70;99.90;;;;;;5094529;28;20048;-76
2022/05/26 00:18:14;;;;;;;14.20;7.70;;;13.70;99.90;;;;;;5077537;28;20117;-77
2022/05/26 00:20:40;;;;;;;17.05;8.05;;;13.70;99.90;;;;;;5094501;28;20040;-77
2022/05/26 00:23:06;;;;;;;16.65;8.60;;;13.80;99.90;;;;;;5094464;28;20127;-77
2022/05/26 00:25:31;;;;;;;16.40;8.73;;;13.80;99.90;;;;;;5077743;28;20126;-77
2022/05/26 00:27:57;;;;;;;14.93;8.52;;;13.80;99.90;;;;;;5094287;28;20400;-77
2022/05/26 00:30:23;;;;;;;15.35;9.20;;;13.80;99.90;;;;;;5094353;28;20048;-77
2022/05/26 00:32:48;;;;;;;14.52;8.95;;;13.80;99.90;;;;;;5077691;28;20442;-77
2022/05/26 00:35:15;;;;;;;19.63;9.93;;;13.80;99.90;;;;;;5094121;28;20526;-77
2022/05/26 00:37:41;;;;;;;17.60;11.10;;;13.80;99.90;;;;;;5077258;28;20515;-77
2022/05/26 00:40:08;;;;;;;21.65;11.48;;;13.90;99.90;;;;;;5094150;28;20102;-77
2022/05/26 00:42:34;;;;;;;15.25;10.02;;;13.90;99.90;;;;;;5077575;28;20547;-77
2022/05/26 00:45:00;;;;;;;18.88;10.07;;;13.90;99.90;;;;;;5077217;28;20120;-77
2022/05/26 00:47:29;;;;;;;16.20;9.93;;;13.90;99.90;;;;;;5077072;28;20048;-77
2022/05/26 00:49:56;;;;;;;25.65;11.60;;;13.90;99.90;;;;;;5077114;28;20047;-77
2022/05/26 00:52:28;;;;;;;29.33;11.82;;;13.90;99.90;;;;;;5093869;28;20040;-77
2022/05/26 00:54:59;;;;;;;24.48;10.75;;;14.00;99.90;;;;;;5093806;28;20044;-77
2022/05/26 00:57:33;;;;;;;25.00;11.27;;;14.00;99.90;;;;;;5093818;28;20500;-76
2022/05/26 01:00:04;;;;;;;28.55;11.98;;;14.00;99.90;;;;;;5076983;28;20452;-77
2022/05/26 01:02:35;;;;;;;32.13;12.55;;;14.00;99.90;;;;;;5076653;28;20447;-77
2022/05/26 01:05:26;;;;;;;27.45;12.35;;;14.00;99.90;;;;;;5093750;28;20102;-77
2022/05/26 01:07:52;;;;;;;31.67;13.05;;;14.00;99.90;;;;;;5071718;28;20095;-77
2022/05/26 01:10:18;;;;;;;32.83;13.02;;;14.00;99.90;;;;;;5093507;28;20084;-77
2022/05/26 01:12:44;;;;;;;28.80;12.02;;;14.00;99.90;;;;;;5094345;28;20135;-77
2022/05/26 01:15:19;;;;;;;32.50;12.18;;;14.00;99.90;;;;;;5093438;28;20500;-77
2022/05/26 01:18:00;;;;;;;33.92;11.73;;;14.00;99.90;;;;;;5093304;28;20102;-77
2022/05/26 01:20:39;;;;;;;37.05;12.02;;;14.00;99.90;;;;;;5093402;28;20055;-76
2022/05/26 01:23:24;;;;;;;32.40;11.27;;;14.00;99.90;;;;;;5076460;28;20055;-76
2022/05/26 01:26:19;;;;;;;33.83;11.60;;;14.00;99.90;;;;;;5076331;28;20044;-77
2022/05/26 01:29:03;;;;;;;36.00;11.73;;;14.10;99.90;;;;;;5093221;28;20054;-77
2022/05/26 01:31:40;;;;;;;35.33;10.80;;;14.00;99.90;;;;;;5076236;28;20454;-77
2022/05/26 01:34:39;;;;;;;35.42;9.57;;;14.00;99.90;;;;;;5093160;28;20530;-77
2022/05/26 01:37:16;;;;;;;37.13;10.57;;;14.00;99.90;;;;;;5076083;28;20079;-77
2022/05/26 01:39:57;;;;;;;39.72;10.80;;;14.00;99.90;;;;;;5076110;28;20040;-77
2022/05/26 01:42:29;;;;;;;41.33;10.10;;;14.10;99.90;;;;;;5093067;28;20048;-77
2022/05/26 01:45:15;;;;;;;37.47;9.52;;;14.00;99.90;;;;;;5116975;22;20056;-70
2022/05/26 01:47:48;;;;;;;39.55;8.82;;;14.00;99.90;;;;;;5075978;28;20086;-69
2022/05/26 01:50:33;;;;;;;43.10;10.07;;;14.00;99.90;;;;;;5076209;28;20067;-69
2022/05/26 01:53:17;;;;;;;39.40;11.10;;;14.00;99.90;;;;;;5076082;28;20079;-69
2022/05/26 01:55:59;;;;;;;38.65;10.30;;;14.00;99.90;;;;;;5092649;28;20059;-69
2022/05/26 01:58:49;;;;;;;44.60;11.48;;;14.00;99.90;;;;;;5092588;28;20043;-69
2022/05/26 02:01:23;;;;;;;41.55;11.13;;;14.00;99.90;;;;;;5092866;28;20410;-69
2022/05/26 02:03:50;;;;;;;38.42;9.90;;;14.00;99.90;;;;;;5075645;28;20118;-69
2022/05/26 02:06:27;;;;;;;35.95;10.10;;;14.00;99.90;;;;;;5092781;28;20044;-69
2022/05/26 02:09:07;;;;;;;41.47;10.30;;;14.00;99.90;;;;;;5092744;28;20127;-69
2022/05/26 02:11:36;;;;;;;39.17;9.68;;;14.00;99.90;;;;;;5092440;28;20055;-69
2022/05/26 02:14:14;;;;;;;50.88;11.05;;;14.00;99.90;;;;;;5075338;28;20574;-69
2022/05/26 02:16:48;;;;;;;45.30;11.43;;;14.00;99.90;;;;;;5092685;28;20464;-69
2022/05/26 02:19:25;;;;;;;42.92;11.38;;;14.00;99.90;;;;;;5092392;28;20058;-69
2022/05/26 02:22:15;;;;;;;47.67;11.38;;;14.10;99.90;;;;;;5092629;28;20051;-69
2022/05/26 02:25:07;;;;;;;40.08;10.38;;;14.10;99.90;;;;;;5092281;28;20048;-69
2022/05/26 02:27:34;;;;;;;44.78;10.70;;;14.10;99.90;;;;;;5092474;28;20062;-69
2022/05/26 02:30:01;;;;;;;46.53;11.98;;;14.10;99.90;;;;;;5092123;28;20047;-69
2022/05/26 02:32:35;;;;;;;45.05;12.18;;;14.00;99.90;;;;;;5075270;28;20051;-69
2022/05/26 02:35:07;;;;;;;44.97;11.13;;;14.10;99.90;;;;;;5092038;28;20048;-69
2022/05/26 02:37:35;;;;;;;42.97;10.83;;;14.10;99.90;;;;;;5092124;28;20123;-69
2022/05/26 02:40:01;;;;;;;42.03;11.50;;;14.10;99.90;;;;;;5092033;28;20051;-69
2022/05/26 02:42:28;;;;;;;40.70;12.02;;;14.10;99.90;;;;;;5092010;28;20043;-69
2022/05/26 02:44:54;;;;;;;45.30;11.65;;;14.10;99.90;;;;;;5091819;28;20087;-69
2022/05/26 02:47:49;;;;;;;53.50;12.05;;;14.10;99.90;;;;;;5092476;28;20460;-70
2022/05/26 02:50:32;;;;;;;40.42;10.20;;;14.10;99.90;;;;;;5091987;28;20094;-70
2022/05/26 02:52:58;;;;;;;48.33;10.57;;;14.10;99.90;;;;;;5075121;28;20090;-70
2022/05/26 02:55:32;;;;;;;47.03;11.10;;;14.10;99.90;;;;;;5091833;28;20048;-70
2022/05/26 02:58:30;;;;;;;44.97;9.98;;;14.10;99.90;;;;;;5092108;28;20145;-70
2022/05/26 03:01:09;;;;;;;46.78;11.23;;;14.10;99.90;;;;;;5091884;28;20089;-69
2022/05/26 03:03:51;;;;;;;44.65;9.85;;;14.00;99.90;;;;;;5091885;28;20087;-69
2022/05/26 03:06:39;;;;;;;42.42;10.43;;;14.10;99.90;;;;;;5091880;28;20051;-69
2022/05/26 03:09:07;;;;;;;41.33;8.70;;;14.10;99.90;;;;;;5091786;28;20131;-70
2022/05/26 03:11:51;;;;;;;48.53;9.57;;;14.10;99.90;;;;;;5093273;28;20044;-70
2022/05/26 03:14:18;;;;;;;37.75;9.85;;;14.10;99.90;;;;;;5096283;28;20044;-70
2022/05/26 03:16:44;;;;;;;34.53;8.57;;;14.10;99.90;;;;;;5095745;28;20059;-70
2022/05/26 03:19:10;;;;;;;45.95;9.40;;;14.00;99.90;;;;;;5095644;28;20048;-70
2022/05/26 03:21:36;;;;;;;40.55;9.00;;;14.00;99.90;;;;;;5078785;28;20051;-70
2022/05/26 03:24:02;;;;;;;35.17;8.10;;;14.00;99.90;;;;;;5095476;28;20044;-69
2022/05/26 03:26:27;;;;;;;40.38;8.68;;;14.00;99.90;;;;;;5095503;28;20048;-69
2022/05/26 03:28:53;;;;;;;36.55;8.35;;;14.00;99.90;;;;;;5095443;28;20129;-69
2022/05/26 03:31:19;;;;;;;43.33;8.75;;;14.00;99.90;;;;;;5095461;28;20047;-69
2022/05/26 03:41:57;;;;;;;40.92;7.95;;;14.00;99.90;;;;;;5095322;28;20036;-69
2022/05/26 03:44:24;;;;;;;36.92;7.75;;;14.00;99.90;;;;;;5094986;28;20105;-69
2022/05/26 03:46:50;;;;;;;37.83;8.23;;;13.90;99.90;;;;;;5095196;28;20552;-69
2022/05/26 03:49:16;;;;;;;39.88;8.15;;;13.90;99.90;;;;;;5095102;28;20097;-69
2022/05/26 03:51:42;;;;;;;32.33;6.72;;;13.90;99.90;;;;;;5078091;28;20139;-69
2022/05/26 03:54:07;;;;;;;35.75;7.25;;;13.90;99.90;;;;;;5095067;28;20043;-69
2022/05/26 03:56:33;;;;;;;43.15;7.88;;;13.90;99.90;;;;;;5095198;28;20518;-69
2022/05/26 03:58:58;;;;;;;37.75;7.28;;;13.90;99.90;;;;;;5095178;28;20515;-69
2022/05/26 04:01:24;;;;;;;32.17;6.90;;;13.90;99.90;;;;;;5095093;28;20459;-69
2022/05/26 04:03:49;;;;;;;38.92;7.80;;;13.90;99.90;;;;;;5094991;28;20645;-69
2022/05/26 04:06:16;;;;;;;31.10;6.43;;;13.90;99.90;;;;;;5094730;28;20048;-69
2022/05/26 04:08:41;;;;;;;35.35;6.97;;;13.90;99.90;;;;;;5094734;28;20044;-69
2022/05/26 04:11:07;;;;;;;30.15;6.50;;;13.90;99.90;;;;;;5094658;28;20050;-69
2022/05/26 04:13:33;;;;;;;29.75;6.15;;;13.90;99.90;;;;;;5077671;28;20075;-69
2022/05/26 04:16:00;;;;;;;24.13;5.43;;;13.90;99.90;;;;;;5094512;28;20059;-69
2022/05/26 04:18:26;;;;;;;29.35;5.88;;;13.90;99.90;;;;;;5094519;28;20499;-69
2022/05/26 04:20:51;;;;;;;26.95;5.70;;;13.90;99.90;;;;;;5094490;28;20066;-69
2022/05/26 04:23:17;;;;;;;29.60;5.28;;;13.90;99.90;;;;;;5093939;28;20036;-70
2022/05/26 04:25:42;;;;;;;28.88;5.95;;;13.90;99.90;;;;;;5094385;28;20094;-70
2022/05/26 04:28:08;;;;;;;25.70;5.28;;;13.90;99.90;;;;;;5094342;28;20055;-70
2022/05/26 04:30:34;;;;;;;29.83;5.45;;;13.80;99.90;;;;;;5094269;28;20040;-69
2022/05/26 04:33:00;;;;;;;26.25;5.57;;;13.80;99.90;;;;;;5094463;28;20138;-69
2022/05/26 04:35:25;;;;;;;26.00;5.38;;;13.80;99.90;;;;;;5077281;28;20083;-69
2022/05/26 04:37:51;;;;;;;24.70;5.43;;;13.80;99.90;;;;;;5094480;28;20148;-69
2022/05/26 04:40:17;;;;;;;25.17;5.15;;;13.80;99.90;;;;;;5094168;28;20504;-69
2022/05/26 04:42:42;;;;;;;24.52;4.72;;;13.80;99.90;;;;;;5094350;28;20040;-69
2022/05/26 04:45:10;;;;;;;19.70;3.83;;;13.80;99.90;;;;;;5093741;28;20531;-69
2022/05/26 04:47:36;;;;;;;21.42;3.83;;;13.80;99.90;;;;;;5077422;28;20051;-69
2022/05/26 04:50:02;;;;;;;23.02;3.40;;;13.70;99.90;;;;;;5077115;28;20048;-70
2022/05/26 04:52:28;;;;;;;23.83;4.13;;;13.70;99.90;;;;;;5094145;28;20048;-69
2022/05/26 04:54:54;;;;;;;14.00;2.97;;;13.70;99.90;;;;;;5076785;28;20510;-69
2022/05/26 04:57:22;;;;;;;20.15;3.67;;;13.70;99.90;;;;;;5093741;28;20044;-69
2022/05/26 04:59:48;;;;;;;16.15;3.45;;;13.80;99.90;;;;;;5093771;28;20059;-69
2022/05/26 05:02:16;;;;;;;15.82;3.08;;;13.80;99.90;;;;;;5093698;28;20040;-69
2022/05/26 05:04:44;;;;;;;13.98;2.70;;;13.80;99.90;;;;;;5093778;28;20459;-69
2022/05/26 05:07:10;;;;;;;15.40;3.35;;;13.80;99.90;;;;;;5093593;28;20048;-69
2022/05/26 05:09:38;;;;;;;11.93;2.33;;;13.80;99.90;;;;;;5093585;28;20169;-69
2022/05/26 05:12:04;;;;;;;11.98;2.50;;;13.80;99.90;;;;;;5093531;28;20056;-69
2022/05/26 05:14:38;;;;;;;9.35;2.10;;;13.80;99.90;;;;;;5093274;28;20054;-70
2022/05/26 05:17:04;;;;;;;13.27;2.72;;;13.90;99.90;;;;;;5093442;28;20045;-70
2022/05/26 05:19:29;;;;;;;14.13;2.58;;;13.90;99.90;;;;;;5093390;28;20066;-70
2022/05/26 05:22:10;;;;;;;10.05;2.40;;;13.90;99.90;;;;;;5093280;28;20044;-69
2022/05/26 05:25:04;;;;;;;9.32;2.65;;;14.00;99.90;;;;;;5093236;28;20097;-69
2022/05/26 05:27:33;;;;;;;10.65;2.00;;;13.90;99.90;;;;;;5093556;28;20047;-69
2022/05/26 05:30:03;;;;;;;12.32;1.88;;;14.00;99.90;;;;;;5093162;28;20075;-69
2022/05/26 05:32:35;;;;;;;9.13;1.83;;;14.00;99.90;;;;;;5093392;28;20495;-69
2022/05/26 05:35:09;;;;;;;11.85;1.67;;;14.10;99.90;;;;;;5092175;28;20519;-69
2022/05/26 05:37:35;;;;;;;15.45;1.90;;;14.10;99.90;;;;;;5093226;28;20122;-69
2022/05/26 05:40:01;;;;;;;5.65;1.50;;;14.20;99.90;;;;;;5092920;28;20503;-69
2022/05/26 05:42:28;;;;;;;8.10;1.60;;;14.30;99.90;;;;;;5092830;28;20043;-69
2022/05/26 05:44:54;;;;;;;10.13;1.58;;;14.30;99.90;;;;;;5092764;28;20044;-69
2022/05/26 05:47:20;;;;;;;10.57;1.77;;;14.40;99.90;;;;;;5093404;28;20048;-69
2022/05/26 05:49:47;;;;;;;9.68;1.63;;;14.40;99.90;;;;;;5093110;28;20104;-69
2022/05/26 05:52:18;;;;;;;10.15;1.70;;;14.40;99.90;;;;;;5092731;28;20423;-69
2022/05/26 05:54:43;;;;;;;7.32;1.20;;;14.40;99.90;;;;;;5092787;28;20044;-69
2022/05/26 05:57:09;;;;;;;7.80;1.40;;;14.50;99.90;;;;;;5092929;28;20048;-69
2022/05/26 05:59:35;;;;;;;9.38;1.60;;;14.60;99.90;;;;;;5092872;28;20143;-69
2022/05/26 06:02:00;;;;;;;7.70;1.77;;;14.60;99.90;;;;;;5092608;28;20461;-69
2022/05/26 06:04:26;;;;;;;9.43;2.05;;;14.70;99.90;;;;;;5092468;28;20120;-69
2022/05/26 06:06:52;;;;;;;10.13;1.33;;;14.70;99.90;;;;;;5075651;28;20059;-69
2022/05/26 06:09:17;;;;;;;6.20;1.27;;;14.70;99.90;;;;;;5092415;28;20056;-69
2022/05/26 06:11:44;;;;;;;9.38;1.42;;;14.80;99.90;;;;;;5092677;28;20051;-69
2022/05/26 06:14:10;;;;;;;7.82;1.63;;;14.80;99.90;;;;;;5092281;28;20080;-69
2022/05/26 06:16:36;;;;;;;8.27;1.00;;;14.80;99.90;;;;;;5092557;28;20078;-69
2022/05/26 06:19:03;;;;;;;6.85;1.08;;;14.80;99.90;;;;;;5092570;28;20150;-69
2022/05/26 06:21:29;;;;;;;9.52;1.17;;;14.80;99.90;;;;;;5092320;28;20040;-69
2022/05/26 06:23:56;;;;;;;9.57;1.67;;;14.80;99.90;;;;;;5092421;28;20044;-69
2022/05/26 06:26:26;;;;;;;5.53;1.50;;;14.90;99.90;;;;;;5092431;28;20036;-69
2022/05/26 06:31:37;;;;;;;7.78;1.00;;;15.10;99.90;;;;;;5092217;28;20044;-69
2022/05/26 06:39:31;;;;;;;5.53;1.27;;;15.30;99.90;;;;;;5092363;28;20040;-69
2022/05/26 06:42:05;;;;;;;9.60;1.40;;;15.40;99.90;;;;;;5075466;28;20492;-69
2022/05/26 06:44:31;;;;;;;8.95;1.40;;;15.50;99.90;;;;;;5091892;28;20518;-69
2022/05/26 06:46:57;;;;;;;6.45;1.10;;;15.40;99.90;;;;;;5091867;28;20040;-69
2022/05/26 06:49:23;;;;;;;4.22;1.00;;;15.40;99.90;;;;;;5091915;28;20135;-69
2022/05/26 06:51:48;;;;;;;8.85;1.17;;;15.40;99.90;;;;;;5092126;28;20079;-69
2022/05/26 06:54:14;;;;;;;5.43;0.90;;;15.40;99.90;;;;;;5091958;28;20412;-69
2022/05/26 06:56:40;;;;;;;8.63;1.23;;;15.40;99.90;;;;;;5091871;28;20500;-69
2022/05/26 06:59:06;;;;;;;5.35;1.48;;;15.40;99.90;;;;;;5091811;28;20046;-69
2022/05/26 07:01:32;;;;;;;8.30;1.10;;;15.50;99.90;;;;;;5091868;28;20044;-69
2022/05/26 07:03:57;;;;;;;6.80;1.10;;;15.60;99.90;;;;;;5091994;28;20075;-69
2022/05/26 07:06:26;;;;;;;8.73;1.13;;;15.60;99.90;;;;;;5091776;28;20450;-69
2022/05/26 07:08:51;;;;;;;10.02;1.63;;;15.70;99.90;;;;;;5074910;28;20516;-69
2022/05/26 07:11:20;;;;;;;5.32;1.00;;;15.90;99.90;;;;;;5074894;28;20041;-69
2022/05/26 07:13:46;;;;;;;7.55;1.00;;;15.90;99.90;;;;;;5091566;28;20408;-70
2022/05/26 07:16:13;;;;;;;4.40;0.90;;;16.00;99.90;;;;;;5091907;28;20055;-70
2022/05/26 07:18:40;;;;;;;3.80;1.05;;;16.00;99.90;;;;;;5091986;28;20059;-70
2022/05/26 07:21:09;;;;;;;4.50;0.90;;;16.10;99.90;;;;;;5091914;28;20503;-70
2022/05/26 07:23:35;;;;;;;4.82;0.85;;;16.10;99.90;;;;;;5091532;28;20048;-70
2022/05/26 07:26:10;;;;;;;6.35;1.00;;;16.20;99.90;;;;;;5091623;28;20062;-69
2022/05/26 07:28:38;;;;;;;6.15;1.15;;;16.20;99.90;;;;;;5091893;28;20052;-69
2022/05/26 07:31:04;;;;;;;4.25;1.00;;;16.30;99.90;;;;;;5091558;28;20048;-70
2022/05/26 07:33:29;;;;;;;5.97;0.98;;;16.30;99.90;;;;;;5091445;28;20059;-70
2022/05/26 07:35:55;;;;;;;6.80;0.90;;;16.30;99.90;;;;;;5074612;28;20062;-70
2022/05/26 07:41:18;;;;;;;6.35;1.40;;;16.40;99.90;;;;;;5091742;28;20044;-69
2022/05/26 07:43:48;;;;;;;11.75;2.08;;;16.50;99.90;;;;;;5091252;28;20059;-69
2022/05/26 07:46:15;;;;;;;7.25;1.00;;;16.50;99.90;;;;;;5091706;28;20048;-69
2022/05/26 07:48:41;;;;;;;6.57;0.77;;;16.60;99.90;;;;;;5091698;28;20095;-70
2022/05/26 07:51:06;;;;;;;5.43;1.10;;;16.60;99.90;;;;;;5091323;28;20044;-69
2022/05/26 07:53:32;;;;;;;5.07;1.30;;;16.60;99.90;;;;;;5091526;28;20087;-69
2022/05/26 07:55:57;;;;;;;4.70;0.93;;;16.70;99.90;;;;;;5091194;28;20098;-70
2022/05/26 07:58:23;;;;;;;5.68;0.90;;;16.70;99.90;;;;;;5093662;28;20082;-70
2022/05/26 08:00:52;;;;;;;4.25;1.00;;;16.80;99.90;;;;;;5094907;28;20048;-70
2022/05/26 08:03:17;;;;;;;6.05;1.10;;;16.80;99.90;;;;;;5095107;28;20048;-70
2022/05/26 08:05:44;;;;;;;6.43;1.02;;;16.80;99.90;;;;;;5094775;28;20521;-69
2022/05/26 08:08:09;;;;;;;6.53;1.40;;;16.90;99.90;;;;;;5094742;28;20055;-69
2022/05/26 08:10:36;;;;;;;4.38;0.90;;;17.00;99.90;;;;;;5094764;28;20043;-69
2022/05/26 08:13:02;;;;;;;7.07;1.27;;;17.00;99.90;;;;;;5094623;28;20504;-69
2022/05/26 08:15:28;;;;;;;4.10;0.80;;;17.10;99.90;;;;;;5094536;28;20048;-70
2022/05/26 08:17:53;;;;;;;8.05;0.98;;;17.20;99.90;;;;;;5077631;28;20036;-70
2022/05/26 08:20:19;;;;;;;6.68;0.90;;;17.30;99.90;;;;;;5094477;28;20089;-70
2022/05/26 08:22:45;;;;;;;7.20;1.40;;;17.30;99.90;;;;;;5094476;28;20040;-70
2022/05/26 08:25:11;;;;;;;7.65;0.90;;;17.40;99.90;;;;;;5094348;28;20044;-70
2022/05/26 08:27:36;;;;;;;8.30;0.98;;;17.60;99.90;;;;;;5094395;28;20051;-70
2022/05/26 08:30:03;;;;;;;4.88;0.63;;;17.70;99.90;;;;;;5094359;28;20052;-70
2022/05/26 08:32:28;;;;;;;7.47;1.23;;;17.70;99.90;;;;;;5094314;28;20087;-70
2022/05/26 08:34:58;;;;;;;5.53;1.17;;;17.70;99.90;;;;;;5094271;28;20080;-70
2022/05/26 08:37:24;;;;;;;3.88;0.80;;;17.80;99.90;;;;;;5077604;28;20040;-70
2022/05/26 08:39:49;;;;;;;6.43;1.40;;;17.90;99.90;;;;;;5094151;28;20496;-70
2022/05/26 08:42:18;;;;;;;6.68;1.23;;;17.90;99.90;;;;;;5094097;28;20079;-70
2022/05/26 08:44:46;;;;;;;6.57;0.80;;;17.80;99.90;;;;;;5093958;28;20546;-69
2022/05/26 08:47:18;;;;;;;5.32;0.98;;;17.80;99.90;;;;;;5077181;28;20056;-69
2022/05/26 08:49:52;;;;;;;5.20;1.08;;;17.90;99.90;;;;;;5094018;28;20058;-69
2022/05/26 08:52:28;;;;;;;6.55;1.02;;;18.00;99.90;;;;;;5093914;28;20496;-69
2022/05/26 08:55:21;;;;;;;4.38;0.80;;;18.00;99.90;;;;;;5077036;28;20052;-69
2022/05/26 08:58:12;;;;;;;6.40;0.90;;;18.10;99.90;;;;;;5093837;28;20048;-69
2022/05/26 09:00:40;;;;;;;5.85;1.00;;;18.20;99.90;;;;;;5093147;28;20044;-70
2022/05/26 09:03:26;;;;;;;5.35;0.80;;;18.50;99.90;;;;;;5077060;28;20047;-70
2022/05/26 09:05:59;;;;;;;5.32;0.70;;;18.40;99.90;;;;;;5093796;28;20064;-70
2022/05/26 09:14:03;;;;;;;4.72;0.90;;;18.20;99.90;;;;;;5093391;28;20048;-69
2022/05/26 09:16:36;;;;;;;5.50;0.75;;;18.20;99.90;;;;;;5093449;28;20170;-69
2022/05/26 09:19:18;;;;;;;2.67;0.60;;;18.30;99.90;;;;;;5093471;28;20105;-69
2022/05/26 09:21:46;;;;;;;4.90;1.00;;;18.30;99.90;;;;;;5093297;28;20052;-69
2022/05/26 09:24:17;;;;;;;5.85;1.00;;;18.20;99.90;;;;;;5093179;28;20526;-69
2022/05/26 09:26:48;;;;;;;3.80;0.70;;;18.10;99.90;;;;;;5093517;28;20106;-69
2022/05/26 09:29:15;;;;;;;4.82;0.95;;;18.20;99.90;;;;;;5093262;28;20183;-69
2022/05/26 09:31:48;;;;;;;3.08;0.50;;;18.40;99.90;;;;;;5076327;28;20492;-69
2022/05/26 09:34:14;;;;;;;2.83;0.60;;;18.70;99.90;;;;;;5093032;28;20055;-69
2022/05/26 09:36:48;;;;;;;6.65;0.70;;;18.80;99.90;;;;;;5093049;28;20048;-69
2022/05/26 09:39:19;;;;;;;2.60;0.60;;;19.00;99.90;;;;;;5093281;28;20043;-69
2022/05/26 09:41:49;;;;;;;3.30;0.82;;;19.20;99.90;;;;;;5093230;28;20059;-69
2022/05/26 09:44:51;;;;;;;5.82;0.82;;;19.30;99.90;;;;;;5092790;28;20054;-69
2022/05/26 09:47:48;;;;;;;5.50;1.27;;;19.50;99.90;;;;;;5092920;28;20044;-69
2022/05/26 09:50:32;;;;;;;5.88;0.93;;;19.30;99.90;;;;;;5092847;28;20110;-69
2022/05/26 09:52:59;;;;;;;6.55;1.02;;;19.10;96.80;;;;;;5092655;28;20044;-70
2022/05/26 09:55:49;;;;;;;5.35;0.68;;;18.80;99.90;;;;;;5092675;28;20608;-70
2022/05/26 09:58:34;;;;;;;3.70;0.85;;;18.60;99.10;;;;;;5092243;28;20044;-70
2022/05/26 10:01:07;;;;;;;3.20;0.57;;;18.50;99.90;;;;;;5092722;28;20054;-70
2022/05/26 10:03:55;;;;;;;3.85;0.63;;;18.40;99.90;;;;;;5092804;28;20058;-70
2022/05/26 10:06:39;;;;;;;4.53;0.88;;;18.50;99.90;;;;;;5092569;28;20052;-70
2022/05/26 10:09:35;;;;;;;5.40;0.93;;;18.80;99.90;;;;;;5092450;28;20048;-70
2022/05/26 10:12:06;;;;;;;6.18;1.20;;;19.00;99.90;;;;;;5092472;28;20044;-70
2022/05/26 10:15:09;;;;;;;3.72;0.60;;;19.00;99.90;;;;;;5075453;28;20210;-70
2022/05/26 10:18:15;;;;;;;5.63;1.08;;;19.20;99.90;;;;;;5092631;28;20047;-70
2022/05/26 10:20:53;;;;;;;2.03;0.30;;;19.10;99.90;;;;;;5047865;28;20055;-70
2022/05/26 10:24:05;;;;;;;5.05;1.25;;;19.10;99.90;;;;;;5092334;28;20055;-70
2022/05/26 10:26:49;;;;;;;5.90;0.93;;;19.00;99.90;;;;;;5092535;28;20044;-70
2022/05/26 10:29:45;;;;;;;6.80;1.33;;;19.10;99.90;;;;;;5092233;28;20518;-70
2022/05/26 10:32:34;;;;;;;3.97;1.00;;;19.40;99.90;;;;;;5092490;28;20044;-69
2022/05/26 10:35:06;;;;;;;4.18;0.70;;;19.60;99.90;;;;;;5092068;28;20558;-69
2022/05/26 10:37:43;;;;;;;5.40;0.80;;;19.50;99.90;;;;;;5092388;28;20047;-69
2022/05/26 10:40:23;;;;;;;5.13;1.20;;;19.40;99.90;;;;;;5092090;28;20094;-69
2022/05/26 10:43:15;;;;;;;5.43;1.15;;;19.60;99.90;;;;;;5091957;28;20459;-69
2022/05/26 10:45:45;;;;;;;6.13;0.90;;;19.70;99.90;;;;;;5092203;28;20048;-69
2022/05/26 10:48:39;;;;;;;5.18;1.00;;;19.70;99.90;;;;;;5092035;28;20060;-70
2022/05/26 10:51:26;;;;;;;9.27;1.88;;;19.60;99.90;;;;;;5075118;28;20514;-70
2022/05/26 10:53:57;;;;;;;8.15;1.13;;;19.30;99.90;;;;;;5091934;28;20048;-70
2022/05/26 10:56:39;;;;;;;6.10;1.10;;;19.00;99.90;;;;;;5091924;28;20048;-70
2022/05/26 10:59:31;;;;;;;5.13;1.10;;;18.70;99.90;;;;;;5092106;28;20412;-70
2022/05/26 11:02:02;;;;;;;5.43;1.08;;;18.40;99.90;;;;;;5075047;28;20093;-70
2022/05/26 11:04:41;;;;;;;6.45;1.10;;;18.30;99.90;;;;;;5091839;28;20048;-70
2022/05/26 11:07:22;;;;;;;6.97;1.30;;;18.40;99.90;;;;;;5091928;28;20110;-69
2022/05/26 11:10:09;;;;;;;5.57;1.00;;;18.70;99.90;;;;;;5092059;28;20155;-70
2022/05/26 11:12:53;;;;;;;7.65;1.33;;;18.80;99.90;;;;;;5092055;28;20078;-70
2022/05/26 11:18:25;;;;;;;6.53;1.60;;;18.90;99.90;;;;;;5091740;28;20044;-70
2022/05/26 11:20:57;;;;;;;4.70;1.00;;;18.80;99.90;;;;;;5092030;28;20048;-70
2022/05/26 11:23:25;;;;;;;4.30;1.10;;;18.70;99.90;;;;;;5091685;28;20079;-70
2022/05/26 11:26:11;;;;;;;4.60;0.90;;;18.60;99.90;;;;;;5091654;28;20106;-70
2022/05/26 11:28:43;;;;;;;6.60;1.42;;;18.60;99.90;;;;;;5091883;28;20499;-70
2022/05/26 11:37:17;;;;;;;6.30;1.23;;;18.60;99.90;;;;;;5095419;28;20048;-70
2022/05/26 11:39:44;;;;;;;5.90;1.30;;;18.80;99.90;;;;;;5095411;28;20044;-70
2022/05/26 11:42:31;;;;;;;3.03;0.80;;;18.70;99.90;;;;;;5095264;28;20090;-70
2022/05/26 11:45:10;;;;;;;4.32;1.20;;;18.70;99.90;;;;;;5095109;28;20415;-69
2022/05/26 11:47:58;;;;;;;5.00;1.10;;;18.60;99.90;;;;;;5095188;28;20420;-69
2022/05/26 11:50:49;;;;;;;8.45;1.40;;;19.00;99.90;;;;;;5095389;28;20048;-69
2022/05/26 11:53:33;;;;;;;4.30;1.27;;;19.20;99.90;;;;;;5094886;28;20059;-69
2022/05/26 11:56:04;;;;;;;5.90;1.00;;;19.20;99.90;;;;;;5094952;28;20101;-69
2022/05/26 11:58:41;;;;;;;4.15;1.30;;;19.00;99.90;;;;;;5095001;28;20050;-69
2022/05/26 12:01:23;;;;;;;4.25;1.00;;;18.80;99.90;;;;;;5094984;28;20051;-69
2022/05/26 12:03:54;;;;;;;3.85;1.02;;;18.70;99.90;;;;;;5095157;28;20113;-69
2022/05/26 12:06:54;;;;;;;3.75;0.73;;;18.60;99.90;;;;;;5094906;28;20056;-70
2022/05/26 12:09:34;;;;;;;3.67;0.80;;;18.60;99.90;;;;;;5077754;28;20055;-70
2022/05/26 12:12:16;;;;;;;5.18;0.80;;;18.70;99.90;;;;;;5094690;28;20055;-70
2022/05/26 12:14:50;;;;;;;6.13;1.03;;;18.80;99.90;;;;;;5095391;28;20111;-70
2022/05/26 12:17:30;;;;;;;5.05;1.10;;;18.90;99.90;;;;;;5078006;28;20059;-70
2022/05/26 12:20:09;;;;;;;6.38;1.20;;;18.90;99.90;;;;;;5094548;28;20040;-70
2022/05/26 12:22:38;;;;;;;7.47;1.05;;;18.90;99.90;;;;;;5077632;28;20048;-70
2022/05/26 12:25:36;;;;;;;6.22;1.00;;;19.00;99.90;;;;;;5094363;28;20055;-70
2022/05/26 12:28:06;;;;;;;5.78;1.25;;;19.10;99.90;;;;;;5094549;28;20131;-69
2022/05/26 12:30:43;;;;;;;4.63;0.90;;;19.10;99.90;;;;;;5094632;28;20048;-71
2022/05/26 12:33:18;;;;;;;3.70;0.90;;;19.30;99.90;;;;;;5094171;28;20044;-71
2022/05/26 12:36:21;;;;;;;4.32;0.82;;;19.30;99.90;;;;;;5094180;28;20048;-71
2022/05/26 12:39:06;;;;;;;6.35;1.10;;;19.30;99.90;;;;;;5094241;28;20048;-71
2022/05/26 12:41:58;;;;;;;6.00;1.17;;;19.30;99.90;;;;;;5094733;28;20064;-72
2022/05/26 12:44:30;;;;;;;6.07;1.05;;;19.10;99.90;;;;;;5093655;28;20178;-71
2022/05/26 12:47:24;;;;;;;5.75;1.20;;;19.10;99.90;;;;;;5094048;28;20044;-71
2022/05/26 12:50:19;;;;;;;6.13;1.00;;;19.30;99.90;;;;;;5094238;28;20517;-71
2022/05/26 12:52:57;;;;;;;7.82;1.42;;;19.40;99.90;;;;;;5094767;28;20131;-71
2022/05/26 12:55:41;;;;;;;4.22;0.98;;;19.60;99.90;;;;;;5076935;28;20581;-71
2022/05/26 12:58:36;;;;;;;5.35;1.45;;;19.70;99.90;;;;;;5094104;28;20055;-71
2022/05/26 13:01:04;;;;;;;7.80;1.40;;;19.90;99.90;;;;;;5084783;28;20082;-71
2022/05/26 13:03:46;;;;;;;8.05;1.27;;;20.00;99.90;;;;;;5077059;28;20173;-71
2022/05/26 13:06:21;;;;;;;8.73;1.27;;;20.00;98.80;;;;;;5093775;28;20134;-72
2022/05/26 13:09:16;;;;;;;6.43;1.15;;;19.90;97.90;;;;;;5077021;28;20071;-71
2022/05/26 13:11:52;;;;;;;10.32;1.23;;;19.90;99.50;;;;;;5084367;28;20458;-71
2022/05/26 13:14:44;;;;;;;6.43;1.50;;;19.90;97.40;;;;;;5093791;28;20055;-71
2022/05/26 13:17:09;;;;;;;5.47;1.30;;;19.80;97.80;;;;;;5093477;28;20583;-71
2022/05/26 13:19:48;;;;;;;4.60;0.90;;;19.70;99.90;;;;;;5093412;28;20138;-72
2022/05/26 13:22:28;;;;;;;5.57;1.48;;;19.60;99.90;;;;;;5093482;28;20052;-72
2022/05/26 13:24:56;;;;;;;7.15;1.58;;;19.50;99.90;;;;;;5076455;28;20076;-72
2022/05/26 13:27:24;;;;;;;6.03;1.00;;;19.30;99.90;;;;;;5093849;28;20052;-72
2022/05/26 13:29:52;;;;;;;6.72;1.58;;;19.30;99.90;;;;;;5093249;28;20052;-71
2022/05/26 13:35:19;;;;;;;7.25;1.30;;;19.30;99.90;;;;;;5093015;28;20048;-71
2022/05/26 13:37:45;;;;;;;6.25;1.08;;;19.20;99.90;;;;;;5076195;28;20040;-71
2022/05/26 13:40:18;;;;;;;6.13;1.30;;;19.20;99.90;;;;;;5093029;28;20036;-72
2022/05/26 13:42:47;;;;;;;7.15;1.25;;;19.20;99.90;;;;;;5093282;28;20040;-72
2022/05/26 13:45:26;;;;;;;7.30;1.33;;;19.20;99.90;;;;;;5092683;28;20598;-71
2022/05/26 13:48:27;;;;;;;9.68;1.52;;;19.20;99.90;;;;;;5092987;28;20066;-71